createdAt,value
2018-09-11T00:01:43.325Z,18.40
2018-09-11T00:04:16.105Z,18.82
2018-09-11T00:06:49.060Z,23.45
2018-09-11T00:09:22.015Z,15.80
2018-09-11T00:11:54.794Z,19.40
2018-09-11T00:14:27.682Z,17.50
2018-09-11T00:17:00.447Z,20.97
2018-09-11T00:19:33.196Z,17.15
2018-09-11T00:22:06.472Z,19.77
2018-09-11T00:24:39.228Z,15.55
2018-09-11T00:27:13.199Z,21.62
2018-09-11T00:29:45.887Z,17.48
2018-09-11T00:32:18.859Z,17.52
2018-09-11T00:34:51.459Z,12.98
2018-09-11T00:37:24.709Z,14.83
2018-09-11T00:39:58.292Z,12.98
2018-09-11T00:42:31.296Z,14.55
2018-09-11T00:45:05.969Z,14.78
2018-09-11T00:47:38.790Z,15.03
2018-09-11T00:50:11.660Z,17.60
2018-09-11T00:52:45.080Z,20.57
2018-09-11T00:55:17.868Z,19.92
2018-09-11T00:57:50.948Z,23.40
2018-09-11T01:00:23.932Z,27.98
2018-09-11T01:02:56.860Z,18.10
2018-09-11T01:05:29.669Z,16.77
2018-09-11T01:08:02.652Z,17.65
2018-09-11T01:10:35.260Z,19.50
2018-09-11T01:13:08.682Z,18.32
2018-09-11T01:15:41.430Z,18.35
2018-09-11T01:18:14.330Z,18.98
2018-09-11T01:20:48.783Z,19.48
2018-09-11T01:23:21.628Z,15.68
2018-09-11T01:25:55.114Z,23.35
2018-09-11T01:28:27.874Z,24.65
2018-09-11T01:31:00.492Z,20.80
2018-09-11T01:33:33.237Z,26.80
2018-09-11T01:36:06.703Z,12.37
2018-09-11T01:38:39.717Z,18.73
2018-09-11T01:41:12.608Z,18.50
2018-09-11T01:43:45.499Z,13.50
2018-09-11T01:46:18.412Z,16.45
2018-09-11T01:48:51.267Z,24.12
2018-09-11T01:51:25.527Z,24.10
2018-09-11T01:53:58.470Z,16.15
2018-09-11T01:56:31.255Z,24.40
2018-09-11T01:59:06.645Z,24.07
2018-09-11T02:01:39.349Z,21.82
2018-09-11T02:04:12.202Z,24.12
2018-09-11T02:06:45.097Z,22.65
2018-09-11T02:09:18.951Z,15.60
2018-09-11T02:11:52.433Z,16.05
2018-09-11T02:14:26.274Z,14.13
2018-09-11T02:16:59.122Z,14.90
2018-09-11T02:19:31.765Z,17.85
2018-09-11T02:22:04.754Z,25.82
2018-09-11T02:24:37.619Z,19.40
2018-09-11T02:27:11.336Z,16.27
2018-09-11T02:29:44.514Z,18.80
2018-09-11T02:32:17.390Z,18.17
2018-09-11T02:34:52.533Z,19.65
2018-09-11T02:37:26.589Z,14.15
2018-09-11T02:39:59.936Z,15.55
2018-09-11T02:42:32.819Z,21.25
2018-09-11T02:45:06.838Z,16.27
2018-09-11T02:47:40.108Z,19.10
2018-09-11T02:50:12.888Z,19.92
2018-09-11T02:52:46.392Z,19.52
2018-09-11T02:55:19.144Z,19.75
2018-09-11T02:57:51.968Z,16.67
2018-09-11T03:00:25.080Z,19.23
2018-09-11T03:02:57.831Z,20.72
2018-09-11T03:05:30.603Z,19.33
2018-09-11T03:08:05.915Z,23.73
2018-09-11T03:10:38.782Z,20.67
2018-09-11T03:13:12.304Z,21.93
2018-09-11T03:15:44.913Z,23.50
2018-09-11T03:18:18.610Z,19.20
2018-09-11T03:20:51.266Z,22.50
2018-09-11T03:23:23.980Z,26.03
2018-09-11T03:25:56.660Z,18.37
2018-09-11T03:28:29.399Z,26.77
2018-09-11T03:31:02.181Z,18.07
2018-09-11T03:33:34.889Z,14.27
2018-09-11T03:36:07.705Z,15.83
2018-09-11T03:38:40.435Z,21.53
2018-09-11T03:41:13.984Z,17.07
2018-09-11T03:43:46.911Z,20.47
2018-09-11T03:46:19.663Z,17.43
2018-09-11T03:48:52.500Z,19.87
2018-09-11T03:51:34.221Z,20.37
2018-09-11T03:54:21.213Z,15.37
2018-09-11T03:57:02.841Z,24.10
2018-09-11T03:59:35.849Z,23.03
2018-09-11T04:02:08.647Z,23.77
2018-09-11T04:04:41.577Z,22.10
2018-09-11T04:07:16.278Z,29.43
2018-09-11T04:09:49.116Z,17.43
2018-09-11T04:12:22.185Z,27.33
2018-09-11T04:14:54.921Z,23.60
2018-09-11T04:17:32.478Z,21.40
2018-09-11T04:20:05.628Z,23.07
2018-09-11T04:22:39.313Z,20.90
2018-09-11T04:25:13.362Z,19.63
2018-09-11T04:27:47.220Z,22.33
2018-09-11T04:30:22.866Z,18.67
2018-09-11T04:32:56.540Z,24.13
2018-09-11T04:35:29.281Z,19.90
2018-09-11T04:38:02.211Z,20.40
2018-09-11T04:40:35.074Z,16.97
2018-09-11T04:43:08.250Z,23.60
2018-09-11T04:45:42.173Z,24.87
2018-09-11T04:48:15.174Z,27.53
2018-09-11T04:50:49.007Z,12.53
2018-09-11T04:53:21.961Z,16.95
2018-09-11T04:55:54.884Z,26.73
2018-09-11T04:58:27.951Z,17.70
2018-09-11T05:01:00.932Z,31.33
2018-09-11T05:03:33.899Z,21.23
2018-09-11T05:06:07.071Z,22.23
2018-09-11T05:08:39.979Z,18.92
2018-09-11T05:11:12.997Z,21.77
2018-09-11T05:13:45.909Z,20.88
2018-09-11T05:16:18.700Z,25.47
2018-09-11T05:18:51.509Z,23.98
2018-09-11T05:21:24.325Z,20.23
2018-09-11T05:23:57.090Z,21.97
2018-09-11T05:26:30.115Z,24.72
2018-09-11T05:29:03.621Z,19.13
2018-09-11T05:31:36.544Z,21.03
2018-09-11T05:34:09.563Z,24.57
2018-09-11T05:36:42.465Z,28.47
2018-09-11T05:39:15.467Z,21.57
2018-09-11T05:41:48.527Z,21.52
2018-09-11T05:44:21.738Z,18.73
2018-09-11T05:46:55.393Z,22.77
2018-09-11T05:49:28.151Z,23.83
2018-09-11T05:52:01.052Z,19.07
2018-09-11T05:54:33.959Z,14.53
2018-09-11T05:57:06.833Z,18.40
2018-09-11T05:59:39.805Z,18.02
2018-09-11T06:02:12.693Z,17.40
2018-09-11T06:04:45.416Z,17.62
2018-09-11T06:07:18.118Z,13.75
2018-09-11T06:09:50.973Z,18.60
2018-09-11T06:12:23.943Z,15.65
2018-09-11T06:14:57.031Z,20.75
2018-09-11T06:17:30.152Z,18.40
2018-09-11T06:20:03.254Z,16.87
2018-09-11T06:22:36.322Z,13.67
2018-09-11T06:25:09.046Z,20.13
2018-09-11T06:27:41.823Z,22.13
2018-09-11T06:30:14.710Z,21.07
2018-09-11T06:32:47.587Z,23.27
2018-09-11T06:35:20.988Z,19.53
2018-09-11T06:37:53.966Z,15.97
2018-09-11T06:40:26.776Z,19.47
2018-09-11T06:42:59.677Z,24.35
2018-09-11T06:45:32.657Z,21.57
2018-09-11T06:48:06.085Z,21.67
2018-09-11T06:50:39.180Z,19.47
2018-09-11T06:53:12.260Z,17.07
2018-09-11T06:55:45.170Z,16.40
2018-09-11T06:58:18.296Z,17.43
2018-09-11T07:00:51.035Z,17.50
2018-09-11T07:03:23.829Z,19.07
2018-09-11T07:05:56.694Z,31.68
2018-09-11T07:08:29.793Z,18.05
2018-09-11T07:11:03.490Z,20.33
2018-09-11T07:13:36.294Z,25.77
2018-09-11T07:16:09.995Z,23.37
2018-09-11T07:18:42.800Z,16.30
2018-09-11T07:21:16.548Z,18.03
2018-09-11T07:23:49.580Z,20.43
2018-09-11T07:26:22.522Z,23.57
2018-09-11T07:28:55.388Z,17.80
2018-09-11T07:31:28.289Z,29.90
2018-09-11T07:34:01.086Z,27.03
2018-09-11T07:36:34.640Z,29.00
2018-09-11T07:39:08.312Z,35.20
2018-09-11T07:41:41.298Z,29.43
2018-09-11T07:44:13.997Z,31.93
2018-09-11T07:46:46.721Z,26.07
2018-09-11T07:49:19.764Z,24.17
2018-09-11T07:51:52.621Z,27.60
2018-09-11T07:54:25.755Z,23.50
2018-09-11T07:56:58.763Z,16.10
2018-09-11T07:59:31.775Z,23.17
2018-09-11T08:02:04.618Z,24.60
2018-09-11T08:04:37.716Z,19.27
2018-09-11T08:07:10.715Z,27.13
2018-09-11T08:09:44.575Z,20.50
2018-09-11T08:12:17.400Z,19.03
2018-09-11T08:14:50.243Z,16.80
2018-09-11T08:17:23.148Z,17.07
2018-09-11T08:19:56.355Z,11.93
2018-09-11T08:22:29.124Z,21.57
2018-09-11T08:25:01.976Z,16.77
2018-09-11T08:27:34.838Z,22.40
2018-09-11T08:30:07.633Z,15.60
2018-09-11T08:32:40.406Z,17.20
2018-09-11T08:35:13.422Z,18.00
2018-09-11T08:37:46.183Z,17.00
2018-09-11T08:40:19.786Z,9.70
2018-09-11T08:42:52.454Z,12.43
2018-09-11T08:45:25.499Z,10.50
2018-09-11T08:47:58.558Z,13.47
2018-09-11T08:50:31.769Z,9.50
2018-09-11T08:53:04.608Z,8.70
2018-09-11T08:55:37.478Z,12.33
2018-09-11T08:58:10.495Z,15.43
2018-09-11T09:00:43.261Z,10.63
2018-09-11T09:03:16.310Z,14.33
2018-09-11T09:05:49.102Z,14.13
2018-09-11T09:08:21.980Z,14.47
2018-09-11T09:10:55.261Z,16.03
2018-09-11T09:13:28.281Z,11.80
2018-09-11T09:16:01.265Z,15.07
2018-09-11T09:18:34.196Z,13.50
2018-09-11T09:21:07.060Z,15.00
2018-09-11T09:23:39.907Z,13.87
2018-09-11T09:26:12.914Z,13.47
2018-09-11T09:28:45.807Z,13.07
2018-09-11T09:31:18.719Z,17.07
2018-09-11T09:33:51.660Z,13.43
2018-09-11T09:36:24.717Z,11.63
2018-09-11T09:38:57.875Z,9.47
2018-09-11T09:41:30.616Z,12.00
2018-09-11T09:44:04.254Z,10.03
2018-09-11T09:46:37.102Z,12.93
2018-09-11T09:49:09.969Z,13.20
2018-09-11T09:51:42.831Z,15.43
2018-09-11T09:54:15.681Z,13.07
2018-09-11T09:56:48.585Z,18.70
2018-09-11T09:59:21.722Z,7.60
2018-09-11T10:02:00.192Z,10.63
2018-09-11T10:04:33.573Z,14.13
2018-09-11T10:07:06.448Z,17.43
2018-09-11T10:09:39.730Z,9.40
2018-09-11T10:12:12.503Z,9.40
2018-09-11T10:14:45.311Z,13.23
2018-09-11T10:17:18.184Z,13.87
2018-09-11T10:19:51.071Z,12.13
2018-09-11T10:22:23.949Z,14.03
2018-09-11T10:24:56.773Z,12.80
2018-09-11T10:27:29.666Z,11.00
2018-09-11T10:30:02.627Z,16.23
2018-09-11T10:32:35.617Z,12.40
2018-09-11T10:35:08.478Z,18.73
2018-09-11T10:37:41.487Z,14.20
2018-09-11T10:40:14.223Z,15.13
2018-09-11T10:42:46.999Z,15.50
2018-09-11T10:45:19.873Z,13.17
2018-09-11T10:47:52.628Z,12.67
2018-09-11T10:50:25.343Z,16.00
2018-09-11T10:52:58.147Z,17.43
2018-09-11T10:55:30.905Z,17.00
2018-09-11T10:58:05.091Z,13.47
2018-09-11T11:00:37.990Z,14.77
2018-09-11T11:03:10.884Z,15.47
2018-09-11T11:05:44.863Z,16.33
2018-09-11T11:08:18.356Z,17.03
2018-09-11T11:10:51.180Z,14.57
2018-09-11T11:13:23.982Z,13.20
2018-09-11T11:15:57.014Z,18.80
2018-09-11T11:18:30.465Z,13.97
2018-09-11T11:21:03.352Z,12.67
2018-09-11T11:23:36.184Z,8.57
2018-09-11T11:26:09.214Z,12.23
2018-09-11T11:28:42.153Z,7.67
2018-09-11T11:31:15.511Z,11.80
2018-09-11T11:33:48.636Z,8.33
2018-09-11T11:36:21.758Z,9.13
2018-09-11T11:38:54.689Z,10.17
2018-09-11T11:41:27.929Z,9.37
2018-09-11T11:44:00.813Z,7.57
2018-09-11T11:46:33.716Z,5.03
2018-09-11T11:49:06.695Z,6.13
2018-09-11T11:51:40.531Z,4.30
2018-09-11T11:54:13.626Z,10.27
2018-09-11T11:56:46.645Z,8.30
2018-09-11T11:59:19.466Z,7.83
2018-09-11T12:01:53.264Z,6.80
2018-09-11T12:04:26.096Z,6.30
2018-09-11T12:06:58.846Z,6.93
2018-09-11T12:09:31.621Z,7.67
2018-09-11T12:12:05.372Z,8.67
2018-09-11T12:14:38.199Z,4.77
2018-09-11T12:17:11.273Z,9.70
2018-09-11T12:19:44.228Z,7.80
2018-09-11T12:22:17.074Z,5.90
2018-09-11T12:24:50.223Z,13.13
2018-09-11T12:27:23.201Z,14.00
2018-09-11T12:29:56.064Z,9.03
2018-09-11T12:32:28.976Z,12.37
2018-09-11T12:35:01.839Z,12.80
2018-09-11T12:37:36.800Z,9.77
2018-09-11T12:40:10.186Z,10.20
2018-09-11T12:42:43.263Z,13.80
2018-09-11T12:45:16.102Z,11.00
2018-09-11T12:47:49.614Z,12.75
2018-09-11T12:50:23.020Z,13.90
2018-09-11T12:52:55.998Z,10.98
2018-09-11T12:55:29.155Z,11.03
2018-09-11T12:58:02.516Z,11.50
2018-09-11T13:00:35.566Z,10.90
2018-09-11T13:03:08.648Z,9.20
2018-09-11T13:05:41.966Z,6.17
2018-09-11T13:08:15.006Z,14.03
2018-09-11T13:10:49.245Z,6.65
2018-09-11T13:13:22.722Z,13.70
2018-09-11T13:15:57.342Z,10.90
2018-09-11T13:18:30.405Z,9.00
2018-09-11T13:21:03.463Z,10.53
2018-09-11T13:23:36.640Z,12.05
2018-09-11T13:26:09.702Z,9.38
2018-09-11T13:28:44.200Z,17.30
2018-09-11T13:31:18.100Z,8.25
2018-09-11T13:33:51.065Z,6.42
2018-09-11T13:36:24.020Z,10.95
2018-09-11T13:38:58.260Z,10.65
2018-09-11T13:41:31.186Z,10.35
2018-09-11T13:44:05.437Z,8.58
2018-09-11T13:46:39.295Z,9.15
2018-09-11T13:49:12.426Z,7.60
2018-09-11T13:51:45.474Z,11.80
2018-09-11T13:54:18.366Z,6.53
2018-09-11T13:56:51.317Z,9.80
2018-09-11T14:08:46.459Z,5.05
2018-09-11T14:11:23.455Z,10.20
2018-09-11T14:14:05.745Z,4.70
2018-09-11T14:17:36.454Z,7.90
2018-09-11T14:20:09.611Z,8.43
2018-09-11T14:22:42.839Z,16.35
2018-09-11T14:25:16.383Z,2.22
2018-09-11T14:27:51.798Z,6.30
2018-09-11T14:30:25.457Z,8.23
2018-09-11T14:32:58.980Z,13.43
2018-09-11T14:35:33.016Z,8.95
2018-09-11T14:38:06.387Z,5.45
2018-09-11T14:40:41.450Z,9.43
2018-09-11T14:43:15.064Z,8.35
2018-09-11T14:45:53.900Z,9.18
2018-09-11T14:48:28.810Z,4.37
2018-09-11T14:51:14.230Z,4.10
2018-09-11T14:53:48.364Z,4.65
2018-09-11T14:56:21.286Z,15.13
2018-09-11T14:58:54.351Z,12.40
2018-09-11T15:01:27.686Z,9.88
2018-09-11T15:04:01.832Z,5.70
2018-09-11T15:06:34.717Z,6.70
2018-09-11T15:09:09.186Z,5.55
2018-09-11T15:11:42.177Z,10.03
2018-09-11T15:14:15.674Z,11.33
2018-09-11T15:16:49.388Z,4.00
2018-09-11T15:19:22.790Z,11.43
2018-09-11T15:21:56.092Z,7.92
2018-09-11T15:24:29.146Z,10.18
2018-09-11T15:27:03.161Z,14.43
2018-09-11T15:29:36.510Z,15.93
2018-09-11T15:32:09.663Z,15.85
2018-09-11T15:34:42.549Z,15.70
2018-09-11T15:37:15.772Z,16.23
2018-09-11T15:39:49.073Z,11.07
2018-09-11T15:42:22.092Z,12.23
2018-09-11T15:44:57.269Z,15.67
2018-09-11T15:47:30.647Z,17.53
2018-09-11T15:50:08.932Z,20.27
2018-09-11T15:52:50.632Z,11.77
2018-09-11T15:55:23.605Z,21.20
2018-09-11T15:58:04.531Z,21.48
2018-09-11T16:00:37.818Z,29.13
2018-09-11T16:03:11.147Z,22.83
2018-09-11T16:05:49.038Z,20.55
2018-09-11T16:08:22.708Z,28.45
2018-09-11T16:10:55.934Z,31.93
2018-09-11T16:13:28.994Z,20.68
2018-09-11T16:16:02.127Z,19.42
2018-09-11T16:18:36.986Z,11.53
2018-09-11T16:21:10.926Z,19.60
2018-09-11T16:23:46.018Z,20.45
2018-09-11T16:26:34.211Z,16.00
2018-09-11T16:29:10.527Z,16.87
2018-09-11T16:31:46.400Z,20.77
2018-09-11T16:34:19.643Z,18.45
2018-09-11T16:36:54.682Z,16.25
2018-09-11T16:39:29.130Z,22.35
2018-09-11T16:42:14.728Z,14.00
2018-09-11T16:47:50.621Z,21.07
2018-09-11T16:50:31.058Z,28.12
2018-09-11T16:55:55.432Z,18.50
2018-09-11T16:58:31.548Z,23.10
2018-09-11T17:01:06.382Z,23.75
2018-09-11T17:03:39.470Z,12.40
2018-09-11T17:06:12.431Z,10.23
2018-09-11T17:08:54.394Z,18.00
2018-09-11T17:11:27.403Z,20.57
2018-09-11T17:14:00.229Z,30.48
2018-09-11T17:16:34.343Z,24.92
2018-09-11T17:19:07.081Z,21.48
2018-09-11T17:21:41.901Z,24.63
2018-09-11T17:24:36.102Z,19.60
2018-09-11T17:27:09.872Z,21.20
2018-09-11T17:29:42.900Z,20.65
2018-09-11T17:32:17.011Z,18.30
2018-09-11T17:34:49.943Z,11.20
2018-09-11T17:37:23.410Z,18.75
2018-09-11T17:39:56.545Z,22.22
2018-09-11T17:42:29.644Z,18.90
2018-09-11T17:45:07.604Z,21.43
2018-09-11T17:47:40.595Z,17.97
2018-09-11T17:50:14.016Z,14.20
2018-09-11T17:52:47.231Z,16.77
2018-09-11T17:55:21.431Z,17.60
2018-09-11T17:57:54.301Z,18.40
2018-09-11T18:00:27.776Z,19.50
2018-09-11T18:03:01.235Z,22.22
2018-09-11T18:05:34.721Z,14.00
2018-09-11T18:08:08.369Z,19.60
2018-09-11T18:10:41.280Z,29.70
2018-09-11T18:13:15.001Z,23.70
2018-09-11T18:15:49.548Z,19.47
2018-09-11T18:18:23.125Z,18.47
2018-09-11T18:20:56.310Z,20.33
2018-09-11T18:23:31.295Z,22.82
2018-09-11T18:26:06.148Z,20.50
2018-09-11T18:28:41.284Z,25.00
2018-09-11T18:31:17.631Z,26.33
2018-09-11T18:33:50.861Z,18.82
2018-09-11T18:36:25.748Z,22.52
2018-09-11T18:39:01.745Z,14.63
2018-09-11T18:41:48.291Z,19.23
2018-09-11T18:44:27.204Z,13.25
2018-09-11T18:47:02.860Z,22.00
2018-09-11T18:49:37.036Z,22.50
2018-09-11T18:52:11.249Z,26.73
2018-09-11T18:54:46.425Z,23.97
2018-09-11T18:57:25.003Z,21.17
2018-09-11T19:00:00.181Z,26.53
2018-09-11T19:02:34.038Z,19.60
2018-09-11T19:05:07.958Z,25.10
2018-09-11T19:07:42.506Z,19.57
2018-09-11T19:10:16.989Z,22.63
2018-09-11T19:12:50.789Z,20.73
2018-09-11T19:15:24.789Z,19.27
2018-09-11T19:17:58.673Z,16.87
2018-09-11T19:20:33.338Z,24.77
2018-09-11T19:23:08.135Z,22.57
2018-09-11T19:25:42.467Z,19.27
2018-09-11T19:28:16.022Z,20.73
2018-09-11T19:30:49.108Z,23.73
2018-09-11T19:33:23.244Z,23.30
2018-09-11T19:55:02.685Z,28.53
2018-09-11T19:57:36.244Z,24.23
2018-09-11T20:00:09.784Z,28.10
2018-09-11T20:02:43.477Z,30.07
2018-09-11T20:05:18.386Z,30.60
2018-09-11T20:07:52.166Z,32.33
2018-09-11T20:10:25.401Z,28.90
2018-09-11T20:15:39.944Z,24.50
2018-09-11T20:18:17.223Z,21.87
2018-09-11T20:20:50.560Z,15.05
2018-09-11T20:23:27.174Z,17.10
2018-09-11T20:26:01.658Z,16.53
2018-09-11T20:28:35.508Z,17.30
2018-09-11T20:31:08.482Z,17.02
2018-09-11T20:33:41.143Z,19.82
2018-09-11T20:36:14.264Z,23.23
2018-09-11T20:38:46.965Z,15.50
2018-09-11T20:41:20.760Z,21.37
2018-09-11T20:43:54.497Z,18.90
2018-09-11T20:46:29.971Z,19.50
2018-09-11T20:49:02.949Z,22.93
2018-09-11T21:04:22.304Z,14.53
2018-09-11T21:06:55.040Z,16.13
2018-09-11T21:09:27.780Z,21.17
2018-09-11T21:12:01.274Z,28.30
2018-09-11T21:14:34.867Z,22.30
2018-09-11T21:17:07.646Z,26.93
2018-09-11T21:19:40.666Z,15.68
2018-09-11T21:22:13.402Z,22.43
2018-09-11T21:24:46.692Z,31.33
2018-09-11T21:27:19.329Z,28.67
2018-09-11T21:29:53.550Z,19.57
2018-09-11T21:32:26.383Z,14.53
2018-09-11T21:34:59.066Z,16.03
2018-09-11T21:37:31.872Z,18.40
2018-09-11T21:40:04.964Z,12.87
2018-09-11T21:42:37.729Z,13.20
2018-09-11T21:45:10.688Z,15.00
2018-09-11T21:47:43.459Z,11.88
2018-09-11T21:50:16.202Z,18.30
2018-09-11T21:52:49.012Z,20.30
2018-09-11T21:55:21.840Z,18.27
2018-09-11T21:57:54.602Z,15.57
2018-09-11T22:00:27.340Z,14.90
2018-09-11T22:03:03.323Z,18.93
2018-09-11T22:05:36.140Z,11.10
2018-09-11T22:08:08.858Z,12.87
2018-09-11T22:10:41.575Z,7.17
2018-09-11T22:13:14.405Z,18.33
2018-09-11T22:15:47.212Z,14.63
2018-09-11T22:18:23.208Z,15.90
2018-09-11T22:20:55.979Z,21.60
2018-09-11T22:23:29.826Z,13.30
2018-09-11T22:26:03.397Z,10.00
2018-09-11T22:28:36.110Z,25.00
2018-09-11T22:31:08.782Z,14.47
2018-09-11T22:33:41.493Z,13.03
2018-09-11T22:36:14.286Z,17.57
2018-09-11T22:38:47.331Z,12.83
2018-09-11T22:41:20.480Z,14.90
2018-09-11T22:43:53.642Z,14.00
2018-09-11T22:46:26.406Z,15.27
2018-09-11T22:48:59.256Z,14.97
2018-09-11T22:51:31.981Z,10.77
2018-09-11T22:54:04.679Z,11.33
2018-09-11T22:56:37.349Z,15.37
2018-09-11T22:59:10.100Z,13.00
2018-09-11T23:01:42.876Z,12.93
2018-09-11T23:04:15.658Z,14.97
2018-09-11T23:06:48.368Z,12.00
2018-09-11T23:09:21.429Z,16.70
2018-09-11T23:11:54.133Z,18.07
2018-09-11T23:14:26.842Z,13.70
2018-09-11T23:16:59.726Z,13.93
2018-09-11T23:19:32.514Z,22.17
2018-09-11T23:22:05.556Z,22.40
2018-09-11T23:24:38.257Z,17.43
2018-09-11T23:27:11.054Z,19.60
2018-09-11T23:29:44.490Z,19.97
2018-09-11T23:32:17.580Z,19.43
2018-09-11T23:34:50.258Z,21.93
2018-09-11T23:37:22.966Z,22.07
2018-09-11T23:39:55.657Z,22.07
2018-09-11T23:42:28.304Z,20.77
2018-09-11T23:45:01.006Z,23.87
2018-09-11T23:47:33.708Z,21.17
2018-09-11T23:50:06.913Z,24.20
2018-09-11T23:52:39.706Z,20.40
2018-09-11T23:55:12.449Z,47.67
2018-09-11T23:57:45.136Z,21.23
